createdAt,value
2023-01-17T00:01:54.443Z,2.30
2023-01-17T00:04:40.085Z,2.60
2023-01-17T00:07:29.133Z,2.40
2023-01-17T00:09:57.866Z,3.03
2023-01-17T00:12:29.955Z,2.28
2023-01-17T00:14:59.674Z,2.70
2023-01-17T00:17:29.985Z,3.00
2023-01-17T00:20:15.892Z,3.40
2023-01-17T00:23:02.518Z,3.15
2023-01-17T00:25:51.121Z,3.60
2023-01-17T00:28:19.973Z,3.10
2023-01-17T00:30:47.338Z,3.93
2023-01-17T00:33:14.468Z,3.90
2023-01-17T00:35:41.661Z,4.00
2023-01-17T00:38:10.225Z,4.00
2023-01-17T00:40:38.693Z,4.30
2023-01-17T00:43:25.395Z,4.10
2023-01-17T00:46:13.641Z,4.20
2023-01-17T00:49:00.239Z,4.10
2023-01-17T00:51:46.659Z,3.72
2023-01-17T00:54:33.066Z,3.70
2023-01-17T00:57:19.462Z,3.72
2023-01-17T01:00:05.424Z,3.53
2023-01-17T01:02:53.393Z,3.25
2023-01-17T01:05:39.678Z,3.03
2023-01-17T01:08:35.572Z,2.67
2023-01-17T01:11:24.718Z,2.70
2023-01-17T01:14:10.370Z,2.83
2023-01-17T01:16:56.209Z,3.10
2023-01-17T01:19:43.312Z,3.20
2023-01-17T01:22:28.990Z,3.40
2023-01-17T01:25:14.749Z,3.30
2023-01-17T01:28:00.324Z,3.03
2023-01-17T01:30:46.179Z,3.03
2023-01-17T01:33:21.145Z,2.60
2023-01-17T01:35:52.508Z,2.78
2023-01-17T01:38:22.715Z,2.70
2023-01-17T01:40:53.389Z,2.93
2023-01-17T01:43:40.168Z,2.40
2023-01-17T01:46:09.089Z,2.30
2023-01-17T01:48:41.285Z,2.60
2023-01-17T01:51:14.639Z,2.33
2023-01-17T01:53:47.909Z,2.20
2023-01-17T01:56:17.525Z,2.00
2023-01-17T01:58:49.947Z,1.80
2023-01-17T02:01:19.452Z,2.00
2023-01-17T02:03:48.791Z,2.30
2023-01-17T02:06:30.067Z,1.83
2023-01-17T02:09:01.167Z,1.80
2023-01-17T02:11:29.533Z,2.00
2023-01-17T02:13:57.797Z,2.10
2023-01-17T02:16:46.432Z,2.50
2023-01-17T02:19:40.859Z,1.83
2023-01-17T02:22:31.245Z,1.85
2023-01-17T02:25:24.717Z,1.48
2023-01-17T02:28:10.665Z,1.70
2023-01-17T02:30:42.051Z,1.70
2023-01-17T02:33:28.584Z,2.00
2023-01-17T02:36:06.642Z,1.60
2023-01-17T02:38:45.022Z,1.40
2023-01-17T02:41:18.778Z,1.23
2023-01-17T02:43:49.445Z,1.20
2023-01-17T02:46:19.328Z,1.20
2023-01-17T02:48:48.424Z,0.90
2023-01-17T02:51:47.825Z,0.70
2023-01-17T02:54:47.381Z,0.60
2023-01-17T02:57:43.853Z,0.70
2023-01-17T03:00:22.618Z,0.40
2023-01-17T03:03:03.200Z,0.50
2023-01-17T03:05:37.798Z,0.50
2023-01-17T03:08:07.564Z,0.60
2023-01-17T03:10:37.275Z,0.73
2023-01-17T03:13:05.694Z,0.60
2023-01-17T03:15:34.173Z,1.00
2023-01-17T03:18:08.290Z,0.80
2023-01-17T03:20:36.509Z,1.20
2023-01-17T03:23:04.934Z,1.05
2023-01-17T03:25:33.453Z,1.20
2023-01-17T03:28:01.830Z,1.40
2023-01-17T03:30:30.074Z,1.17
2023-01-17T03:32:58.408Z,1.52
2023-01-17T03:35:28.499Z,1.20
2023-01-17T03:37:57.075Z,1.00
2023-01-17T03:40:29.799Z,1.40
2023-01-17T03:42:57.983Z,1.70
2023-01-17T03:45:26.229Z,1.40
2023-01-17T03:47:56.812Z,1.30
2023-01-17T03:50:25.218Z,1.60
2023-01-17T03:52:54.781Z,1.70
2023-01-17T03:55:23.102Z,1.33
2023-01-17T03:57:51.311Z,1.40
2023-01-17T04:00:21.041Z,1.10
2023-01-17T04:02:49.524Z,0.90
2023-01-17T04:05:18.159Z,0.85
2023-01-17T04:07:46.585Z,0.70
2023-01-17T04:10:17.238Z,0.80
2023-01-17T04:12:46.016Z,0.73
2023-01-17T04:15:14.279Z,1.20
2023-01-17T04:17:43.359Z,1.00
2023-01-17T04:20:17.403Z,1.17
2023-01-17T04:22:45.751Z,1.60
2023-01-17T04:25:15.448Z,1.00
2023-01-17T04:27:43.734Z,1.50
2023-01-17T04:30:13.297Z,1.50
2023-01-17T04:32:41.523Z,1.40
2023-01-17T04:35:10.576Z,1.50
2023-01-17T04:37:39.138Z,1.60
2023-01-17T04:40:08.462Z,1.40
2023-01-17T04:42:38.153Z,1.45
2023-01-17T04:45:07.776Z,2.58
2023-01-17T04:47:36.116Z,2.10
2023-01-17T04:50:04.599Z,2.20
2023-01-17T04:52:32.864Z,2.47
2023-01-17T04:55:01.172Z,2.50
2023-01-17T04:57:29.405Z,2.03
2023-01-17T04:59:59.161Z,2.37
2023-01-17T05:02:27.573Z,2.10
2023-01-17T05:04:55.883Z,2.38
2023-01-17T05:07:24.117Z,2.45
2023-01-17T05:09:52.329Z,2.35
2023-01-17T05:12:20.541Z,2.47
2023-01-17T05:14:48.812Z,3.10
2023-01-17T05:17:18.263Z,3.17
2023-01-17T05:19:46.903Z,3.75
2023-01-17T05:22:15.986Z,3.80
2023-01-17T05:24:45.019Z,4.60
2023-01-17T05:27:14.789Z,3.95
2023-01-17T05:29:43.192Z,4.20
2023-01-17T05:32:11.535Z,4.53
2023-01-17T05:34:41.151Z,5.20
2023-01-17T05:37:09.564Z,4.90
2023-01-17T05:39:37.735Z,4.30
2023-01-17T05:42:06.198Z,4.50
2023-01-17T05:44:34.404Z,3.60
2023-01-17T05:47:02.614Z,3.67
2023-01-17T05:49:30.825Z,3.75
2023-01-17T05:52:00.383Z,3.38
2023-01-17T05:54:30.045Z,3.70
2023-01-17T05:56:58.312Z,3.40
2023-01-17T05:59:36.479Z,4.10
2023-01-17T06:02:06.345Z,3.63
2023-01-17T06:04:35.023Z,3.20
2023-01-17T06:07:05.419Z,3.60
2023-01-17T06:09:33.608Z,3.47
2023-01-17T06:12:02.973Z,3.70
2023-01-17T06:14:31.229Z,3.90
2023-01-17T06:16:59.477Z,3.92
2023-01-17T06:19:27.741Z,3.80
2023-01-17T06:21:56.089Z,3.70
2023-01-17T06:24:25.762Z,3.70
2023-01-17T06:26:54.070Z,3.40
2023-01-17T06:29:22.267Z,3.63
2023-01-17T06:31:50.623Z,3.58
2023-01-17T06:34:19.000Z,3.42
2023-01-17T06:36:47.343Z,3.47
2023-01-17T06:39:15.592Z,3.00
2023-01-17T06:41:45.208Z,3.20
2023-01-17T06:44:13.459Z,2.90
2023-01-17T06:46:41.918Z,2.53
2023-01-17T06:49:10.329Z,2.80
2023-01-17T06:51:38.591Z,2.90
2023-01-17T06:54:07.206Z,2.60
2023-01-17T06:56:35.554Z,2.55
2023-01-17T06:59:05.354Z,2.10
2023-01-17T07:01:33.884Z,2.90
2023-01-17T07:04:02.275Z,3.47
2023-01-17T07:06:30.485Z,5.00
2023-01-17T07:08:59.093Z,3.95
2023-01-17T07:11:27.696Z,3.35
2023-01-17T07:13:55.825Z,3.70
2023-01-17T07:16:25.692Z,4.50
2023-01-17T07:18:54.858Z,4.68
2023-01-17T07:21:23.187Z,5.38
2023-01-17T07:23:51.412Z,4.78
2023-01-17T07:26:19.735Z,4.97
2023-01-17T07:28:47.907Z,5.40
2023-01-17T07:31:16.155Z,5.10
2023-01-17T07:33:45.957Z,6.00
2023-01-17T07:36:14.251Z,5.80
2023-01-17T07:38:44.181Z,6.32
2023-01-17T07:41:12.347Z,6.60
2023-01-17T07:43:41.671Z,7.00
2023-01-17T07:46:09.885Z,6.25
2023-01-17T07:48:38.130Z,6.70
2023-01-17T07:51:08.176Z,6.03
2023-01-17T07:53:37.149Z,6.75
2023-01-17T07:56:07.668Z,6.40
2023-01-17T07:58:36.436Z,6.07
2023-01-17T08:01:06.294Z,5.90
2023-01-17T08:03:39.780Z,5.72
2023-01-17T08:06:18.253Z,6.32
2023-01-17T08:08:46.534Z,6.00
2023-01-17T08:11:15.141Z,6.80
2023-01-17T08:13:43.430Z,6.43
2023-01-17T08:16:12.070Z,6.60
2023-01-17T08:18:40.694Z,5.95
2023-01-17T08:21:16.728Z,6.40
2023-01-17T08:23:47.972Z,6.65
2023-01-17T08:26:21.356Z,6.70
2023-01-17T08:28:50.736Z,6.30
2023-01-17T08:31:19.885Z,6.90
2023-01-17T08:33:48.184Z,6.30
2023-01-17T08:36:18.119Z,6.43
2023-01-17T08:38:46.386Z,6.20
2023-01-17T08:41:14.796Z,6.35
2023-01-17T08:43:43.001Z,5.82
2023-01-17T08:46:11.159Z,5.90
2023-01-17T08:48:39.327Z,6.15
2023-01-17T08:51:07.746Z,5.95
2023-01-17T08:53:37.377Z,5.85
2023-01-17T08:56:06.903Z,6.00
2023-01-17T08:58:35.897Z,5.80
2023-01-17T09:01:05.368Z,5.78
2023-01-17T09:03:34.931Z,5.18
2023-01-17T09:06:05.266Z,5.30
2023-01-17T09:08:34.502Z,5.20
2023-01-17T09:11:06.719Z,4.82
2023-01-17T09:13:35.012Z,5.50
2023-01-17T09:16:04.434Z,5.00
2023-01-17T09:18:33.919Z,4.70
2023-01-17T09:21:11.344Z,4.70
2023-01-17T09:23:39.746Z,4.55
2023-01-17T09:26:15.494Z,5.20
2023-01-17T09:28:43.695Z,5.30
2023-01-17T09:31:11.950Z,5.57
2023-01-17T09:33:41.656Z,5.55
2023-01-17T09:36:10.414Z,6.13
2023-01-17T09:38:40.076Z,5.38
2023-01-17T09:41:23.001Z,5.80
2023-01-17T09:43:56.651Z,5.97
2023-01-17T09:46:29.118Z,5.90
2023-01-17T09:49:04.358Z,5.50
2023-01-17T09:51:32.907Z,5.55
2023-01-17T09:54:02.477Z,6.10
2023-01-17T09:56:36.414Z,6.13
2023-01-17T09:59:20.949Z,6.10
2023-01-17T10:01:58.677Z,6.40
2023-01-17T10:04:44.706Z,6.30
2023-01-17T10:07:25.813Z,6.88
2023-01-17T10:10:11.214Z,6.60
2023-01-17T10:12:49.139Z,6.95
2023-01-17T10:15:46.407Z,7.10
2023-01-17T10:18:32.612Z,6.90
2023-01-17T10:21:05.752Z,6.60
2023-01-17T10:23:46.378Z,7.10
2023-01-17T10:26:19.568Z,6.60
2023-01-17T10:28:51.259Z,6.88
2023-01-17T10:31:24.875Z,6.38
2023-01-17T10:33:54.981Z,6.22
2023-01-17T10:36:25.839Z,5.90
2023-01-17T10:38:56.831Z,5.67
2023-01-17T10:41:30.264Z,6.50
2023-01-17T10:44:13.208Z,6.03
2023-01-17T10:46:46.250Z,6.05
2023-01-17T10:49:18.367Z,6.07
2023-01-17T10:52:13.479Z,5.70
2023-01-17T10:54:54.805Z,6.53
2023-01-17T10:57:25.078Z,6.00
2023-01-17T10:59:59.308Z,6.70
2023-01-17T11:02:31.284Z,5.88
2023-01-17T11:05:05.649Z,7.03
2023-01-17T11:07:33.999Z,6.93
2023-01-17T11:10:02.233Z,6.40
2023-01-17T11:12:33.929Z,5.70
2023-01-17T11:15:07.523Z,5.60
2023-01-17T11:17:37.991Z,6.18
2023-01-17T11:20:23.552Z,6.05
2023-01-17T11:23:05.849Z,7.10
2023-01-17T11:25:35.228Z,5.90
2023-01-17T11:28:07.315Z,4.90
2023-01-17T11:30:38.032Z,6.50
2023-01-17T11:33:22.143Z,6.23
2023-01-17T11:35:50.471Z,6.57
2023-01-17T11:38:21.385Z,6.88
2023-01-17T11:40:50.994Z,7.18
2023-01-17T11:43:23.038Z,5.53
2023-01-17T11:46:14.502Z,5.33
2023-01-17T11:48:43.000Z,5.43
2023-01-17T11:51:22.297Z,5.18
2023-01-17T11:53:50.837Z,5.60
2023-01-17T11:56:23.530Z,5.20
2023-01-17T11:58:52.552Z,5.53
2023-01-17T12:01:34.066Z,6.00
2023-01-17T12:04:23.076Z,5.55
2023-01-17T12:07:04.813Z,5.63
2023-01-17T12:09:40.035Z,5.90
2023-01-17T12:12:35.427Z,6.20
2023-01-17T12:15:18.475Z,5.93
2023-01-17T12:18:11.930Z,6.35
2023-01-17T12:20:47.004Z,6.00
2023-01-17T12:23:40.598Z,4.72
2023-01-17T12:26:23.921Z,5.60
2023-01-17T12:29:34.328Z,5.20
2023-01-17T12:32:24.834Z,6.00
2023-01-17T12:34:58.389Z,5.70
2023-01-17T12:37:34.571Z,5.90
2023-01-17T12:40:09.307Z,4.68
2023-01-17T12:42:43.337Z,5.07
2023-01-17T12:45:16.194Z,5.50
2023-01-17T12:47:47.691Z,5.13
2023-01-17T12:50:26.001Z,4.72
2023-01-17T12:53:00.736Z,4.53
2023-01-17T12:55:38.491Z,4.97
2023-01-17T12:58:13.818Z,4.30
2023-01-17T13:00:52.451Z,3.83
2023-01-17T13:03:28.106Z,4.00
2023-01-17T13:05:58.993Z,3.97
2023-01-17T13:08:35.436Z,4.00
2023-01-17T13:11:08.225Z,4.40
2023-01-17T13:13:36.773Z,3.60
2023-01-17T13:16:11.688Z,4.30
2023-01-17T13:18:43.992Z,4.03
2023-01-17T13:21:42.124Z,4.40
2023-01-17T13:24:22.697Z,3.83
2023-01-17T13:27:28.003Z,3.33
2023-01-17T13:30:08.670Z,3.10
2023-01-17T13:32:55.644Z,3.50
2023-01-17T13:35:39.948Z,2.85
2023-01-17T13:38:25.332Z,3.10
2023-01-17T13:40:58.433Z,3.20
2023-01-17T13:43:31.414Z,3.35
2023-01-17T13:46:03.331Z,3.20
2023-01-17T13:48:34.243Z,2.80
2023-01-17T13:51:04.338Z,2.85
2023-01-17T13:54:01.041Z,2.55
2023-01-17T13:56:36.213Z,2.80
2023-01-17T13:59:39.299Z,2.53
2023-01-17T14:02:36.191Z,2.65
2023-01-17T14:05:11.794Z,2.60
2023-01-17T14:07:47.492Z,2.03
2023-01-17T14:10:31.521Z,2.50
2023-01-17T14:13:00.476Z,2.95
2023-01-17T14:15:32.750Z,2.38
2023-01-17T14:18:03.101Z,2.30
2023-01-17T14:20:51.682Z,2.53
2023-01-17T14:23:41.608Z,2.37
2023-01-17T14:26:37.721Z,2.10
2023-01-17T14:29:39.440Z,2.25
2023-01-17T14:32:12.366Z,2.25
2023-01-17T14:34:41.031Z,2.25
2023-01-17T14:37:25.506Z,2.20
2023-01-17T14:39:54.207Z,2.00
2023-01-17T14:42:27.270Z,2.10
2023-01-17T14:45:02.955Z,2.20
2023-01-17T14:47:36.794Z,2.40
2023-01-17T14:50:14.271Z,2.33
2023-01-17T14:52:42.755Z,2.30
2023-01-17T14:55:17.172Z,2.55
2023-01-17T14:57:56.029Z,2.13
2023-01-17T15:00:29.089Z,2.35
2023-01-17T15:03:00.100Z,3.05
2023-01-17T15:05:31.302Z,2.00
2023-01-17T15:08:00.223Z,1.85
2023-01-17T15:10:32.439Z,2.13
2023-01-17T15:13:10.091Z,1.60
2023-01-17T15:15:40.711Z,1.90
2023-01-17T15:18:19.363Z,2.30
2023-01-17T15:20:54.591Z,2.08
2023-01-17T15:23:24.456Z,2.13
2023-01-17T15:25:54.617Z,1.95
2023-01-17T15:28:24.800Z,2.38
2023-01-17T15:31:14.675Z,2.13
2023-01-17T15:33:46.649Z,2.30
2023-01-17T15:36:27.029Z,2.30
2023-01-17T15:39:00.172Z,2.40
2023-01-17T15:41:32.143Z,2.30
2023-01-17T15:44:03.016Z,3.00
2023-01-17T15:46:34.060Z,2.92
2023-01-17T15:49:17.621Z,2.70
2023-01-17T15:51:52.290Z,2.50
2023-01-17T15:54:50.605Z,2.80
2023-01-17T15:57:24.014Z,2.70
2023-01-17T16:00:07.045Z,2.45
2023-01-17T16:02:43.572Z,2.45
2023-01-17T16:05:38.653Z,2.70
2023-01-17T16:08:28.841Z,3.10
2023-01-17T16:11:02.036Z,3.55
2023-01-17T16:13:32.105Z,3.25
2023-01-17T16:16:20.541Z,3.85
2023-01-17T16:18:49.886Z,3.80
2023-01-17T16:21:24.993Z,3.78
2023-01-17T16:23:54.036Z,3.30
2023-01-17T16:26:22.507Z,3.60
2023-01-17T16:28:51.036Z,3.47
2023-01-17T16:31:20.867Z,3.70
2023-01-17T16:33:50.941Z,3.50
2023-01-17T16:36:20.895Z,4.82
2023-01-17T16:38:51.214Z,4.43
2023-01-17T16:41:19.788Z,4.25
2023-01-17T16:43:57.345Z,4.90
2023-01-17T16:46:27.331Z,6.10
2023-01-17T16:48:55.761Z,8.45
2023-01-17T16:51:24.024Z,8.70
2023-01-17T16:53:52.302Z,7.97
2023-01-17T16:56:21.344Z,7.80
2023-01-17T16:58:49.541Z,9.20
2023-01-17T17:01:21.290Z,9.20
2023-01-17T17:03:51.289Z,8.30
2023-01-17T17:06:19.843Z,8.45
2023-01-17T17:08:48.612Z,8.10
2023-01-17T17:11:18.977Z,8.57
2023-01-17T17:13:49.009Z,7.35
2023-01-17T17:16:19.503Z,7.50
2023-01-17T17:18:55.027Z,7.97
2023-01-17T17:21:23.671Z,7.10
2023-01-17T17:23:56.707Z,6.30
2023-01-17T17:26:26.828Z,8.73
2023-01-17T17:28:55.625Z,8.38
2023-01-17T17:31:24.264Z,8.70
2023-01-17T17:33:54.124Z,9.30
2023-01-17T17:36:23.269Z,9.50
2023-01-17T17:38:54.533Z,9.30
2023-01-17T17:41:24.530Z,9.65
2023-01-17T17:43:53.210Z,10.30
2023-01-17T17:46:22.778Z,10.32
2023-01-17T17:48:51.506Z,10.83
2023-01-17T17:51:26.341Z,9.65
2023-01-17T17:53:55.287Z,9.35
2023-01-17T17:56:24.488Z,8.48
2023-01-17T17:58:52.745Z,9.80
2023-01-17T18:01:22.856Z,9.97
2023-01-17T18:03:51.679Z,10.02
2023-01-17T18:06:20.670Z,10.20
2023-01-17T18:08:52.001Z,10.05
2023-01-17T18:11:26.128Z,10.65
2023-01-17T18:13:56.249Z,10.50
2023-01-17T18:16:27.274Z,9.40
2023-01-17T18:18:57.407Z,10.68
2023-01-17T18:21:28.398Z,10.43
2023-01-17T18:23:59.866Z,10.77
2023-01-17T18:26:30.564Z,11.50
2023-01-17T18:29:00.358Z,11.60
2023-01-17T18:31:30.290Z,10.38
2023-01-17T18:34:00.131Z,11.30
2023-01-17T18:36:29.246Z,11.95
2023-01-17T18:38:59.352Z,11.10
2023-01-17T18:41:29.172Z,15.55
2023-01-17T18:43:58.115Z,21.45
2023-01-17T18:46:27.475Z,20.33
2023-01-17T18:48:58.112Z,20.95
2023-01-17T18:51:26.978Z,21.15
2023-01-17T18:53:55.221Z,20.80
2023-01-17T18:56:24.812Z,21.00
2023-01-17T18:58:53.246Z,19.52
2023-01-17T19:01:23.405Z,19.73
2023-01-17T19:03:53.884Z,21.40
2023-01-17T19:06:24.770Z,20.90
2023-01-17T19:08:53.492Z,19.47
2023-01-17T19:11:24.365Z,18.25
2023-01-17T19:13:53.520Z,16.90
2023-01-17T19:16:25.467Z,16.75
2023-01-17T19:18:54.114Z,16.13
2023-01-17T19:21:23.912Z,13.80
2023-01-17T19:23:52.406Z,13.35
2023-01-17T19:26:22.867Z,13.95
2023-01-17T19:28:52.818Z,16.00
2023-01-17T19:31:23.252Z,12.80
2023-01-17T19:33:53.671Z,10.02
2023-01-17T19:36:24.098Z,11.60
2023-01-17T19:39:03.901Z,11.20
2023-01-17T19:41:33.946Z,12.50
2023-01-17T19:44:05.475Z,14.00
2023-01-17T19:46:34.311Z,13.25
2023-01-17T19:49:04.370Z,13.50
2023-01-17T19:51:32.619Z,12.00
2023-01-17T19:54:02.985Z,12.95
2023-01-17T19:56:31.636Z,13.73
2023-01-17T19:59:01.485Z,14.60
2023-01-17T20:01:33.467Z,16.20
2023-01-17T20:04:04.128Z,16.92
2023-01-17T20:06:34.528Z,17.38
2023-01-17T20:09:04.145Z,16.42
2023-01-17T20:11:32.484Z,16.63
2023-01-17T20:14:01.123Z,18.13
2023-01-17T20:16:35.889Z,17.65
2023-01-17T20:19:04.087Z,25.60
2023-01-17T20:21:33.137Z,22.03
2023-01-17T20:24:04.411Z,21.90
2023-01-17T20:26:35.872Z,23.27
2023-01-17T20:29:07.324Z,28.63
2023-01-17T20:31:38.513Z,29.05
2023-01-17T20:34:08.105Z,26.33
2023-01-17T20:36:37.370Z,24.20
2023-01-17T20:39:06.731Z,24.13
2023-01-17T20:41:36.750Z,23.17
2023-01-17T20:44:06.949Z,24.33
2023-01-17T20:46:41.051Z,24.02
2023-01-17T20:49:14.769Z,22.60
2023-01-17T20:51:44.387Z,21.08
2023-01-17T20:54:14.944Z,19.42
2023-01-17T20:56:43.662Z,16.23
2023-01-17T20:59:14.522Z,16.70
2023-01-17T21:01:44.940Z,16.30
2023-01-17T21:04:14.728Z,14.75
2023-01-17T21:06:44.154Z,14.80
2023-01-17T21:09:13.983Z,16.65
2023-01-17T21:11:42.295Z,15.90
2023-01-17T21:14:10.840Z,15.15
2023-01-17T21:16:39.360Z,14.32
2023-01-17T21:19:12.038Z,14.77
2023-01-17T21:21:40.437Z,14.05
2023-01-17T21:24:09.245Z,13.77
2023-01-17T21:26:38.927Z,13.43
2023-01-17T21:29:07.340Z,12.63
2023-01-17T21:31:36.741Z,12.90
2023-01-17T21:34:09.282Z,11.57
2023-01-17T21:36:38.903Z,11.52
2023-01-17T21:39:09.249Z,11.57
2023-01-17T21:41:39.713Z,10.70
2023-01-17T21:44:10.077Z,9.55
2023-01-17T21:46:40.107Z,9.88
2023-01-17T21:49:12.011Z,11.13
2023-01-17T21:51:56.910Z,11.65
2023-01-17T21:54:40.822Z,14.00
2023-01-17T21:57:27.234Z,13.23
2023-01-17T21:59:55.490Z,13.27
2023-01-17T22:02:24.080Z,12.50
2023-01-17T22:04:56.262Z,14.30
2023-01-17T22:07:27.090Z,14.00
2023-01-17T22:09:56.757Z,13.07
2023-01-17T22:12:25.810Z,13.50
2023-01-17T22:14:54.453Z,13.10
2023-01-17T22:17:22.872Z,14.10
2023-01-17T22:19:51.184Z,14.13
2023-01-17T22:22:21.680Z,12.05
2023-01-17T22:24:50.410Z,12.73
2023-01-17T22:27:19.964Z,12.50
2023-01-17T22:29:48.158Z,11.63
2023-01-17T22:32:16.405Z,10.63
2023-01-17T22:34:44.694Z,10.65
2023-01-17T22:37:13.141Z,9.50
2023-01-17T22:39:42.861Z,10.90
2023-01-17T22:42:11.675Z,10.18
2023-01-17T22:44:39.796Z,10.17
2023-01-17T22:47:08.057Z,9.73
2023-01-17T22:49:36.272Z,9.85
2023-01-17T22:52:04.699Z,9.93
2023-01-17T22:54:33.073Z,9.60
2023-01-17T22:57:06.409Z,9.38
2023-01-17T22:59:35.365Z,8.60
2023-01-17T23:02:05.701Z,8.60
2023-01-17T23:04:33.955Z,9.00
2023-01-17T23:07:02.230Z,8.95
2023-01-17T23:09:30.597Z,10.57
2023-01-17T23:11:58.842Z,9.70
2023-01-17T23:14:30.627Z,9.57
2023-01-17T23:17:29.852Z,9.60
2023-01-17T23:19:58.323Z,9.55
2023-01-17T23:22:29.027Z,9.80
2023-01-17T23:24:58.854Z,9.93
2023-01-17T23:27:48.170Z,10.30
2023-01-17T23:30:20.135Z,9.00
2023-01-17T23:32:50.094Z,9.90
2023-01-17T23:35:20.480Z,10.40
2023-01-17T23:38:06.648Z,8.88
2023-01-17T23:40:37.125Z,9.15
2023-01-17T23:43:23.287Z,8.40
2023-01-17T23:45:54.354Z,8.40
2023-01-17T23:48:24.718Z,7.65
2023-01-17T23:50:53.226Z,8.60
2023-01-17T23:53:23.019Z,7.90
2023-01-17T23:55:53.407Z,7.85
2023-01-17T23:58:23.549Z,7.82
